sensor_id;sensor_type;location;lat;lon;timestamp;P1;durP1;ratioP1;P2;durP2;ratioP2
60847;SDS011;46681;47.696;9.140;2023-05-20T00:03:08;3.77;;;3.47;;
60847;SDS011;46681;47.696;9.140;2023-05-20T00:05:35;3.90;;;3.57;;
60847;SDS011;46681;47.696;9.140;2023-05-20T00:08:00;3.90;;;3.60;;
60847;SDS011;46681;47.696;9.140;2023-05-20T00:10:33;3.73;;;3.07;;
60847;SDS011;46681;47.696;9.140;2023-05-20T00:13:16;4.53;;;3.50;;
60847;SDS011;46681;47.696;9.140;2023-05-20T00:15:46;3.43;;;3.13;;
60847;SDS011;46681;47.696;9.140;2023-05-20T00:18:18;3.80;;;3.50;;
60847;SDS011;46681;47.696;9.140;2023-05-20T00:20:47;3.67;;;3.37;;
60847;SDS011;46681;47.696;9.140;2023-05-20T00:23:12;3.57;;;3.27;;
60847;SDS011;46681;47.696;9.140;2023-05-20T00:25:43;3.70;;;3.07;;
60847;SDS011;46681;47.696;9.140;2023-05-20T00:28:20;3.67;;;3.37;;
60847;SDS011;46681;47.696;9.140;2023-05-20T00:30:53;6.20;;;3.37;;
60847;SDS011;46681;47.696;9.140;2023-05-20T00:33:20;4.33;;;3.40;;
60847;SDS011;46681;47.696;9.140;2023-05-20T00:35:52;3.83;;;3.53;;
60847;SDS011;46681;47.696;9.140;2023-05-20T00:38:19;4.10;;;3.53;;
60847;SDS011;46681;47.696;9.140;2023-05-20T00:40:53;4.20;;;3.43;;
60847;SDS011;46681;47.696;9.140;2023-05-20T00:43:20;3.63;;;3.10;;
60847;SDS011;46681;47.696;9.140;2023-05-20T00:45:49;4.10;;;3.43;;
60847;SDS011;46681;47.696;9.140;2023-05-20T00:48:23;4.37;;;3.97;;
60847;SDS011;46681;47.696;9.140;2023-05-20T00:50:52;3.63;;;3.30;;
60847;SDS011;46681;47.696;9.140;2023-05-20T00:53:23;3.50;;;3.30;;
60847;SDS011;46681;47.696;9.140;2023-05-20T00:55:50;3.90;;;3.60;;
60847;SDS011;46681;47.696;9.140;2023-05-20T00:58:17;3.93;;;3.57;;
60847;SDS011;46681;47.696;9.140;2023-05-20T01:00:46;4.00;;;3.70;;
60847;SDS011;46681;47.696;9.140;2023-05-20T01:03:18;5.07;;;3.93;;
60847;SDS011;46681;47.696;9.140;2023-05-20T01:05:55;3.00;;;2.80;;
60847;SDS011;46681;47.696;9.140;2023-05-20T01:08:25;3.53;;;3.23;;
60847;SDS011;46681;47.696;9.140;2023-05-20T01:13:46;3.20;;;3.00;;
60847;SDS011;46681;47.696;9.140;2023-05-20T01:16:20;3.70;;;3.40;;
60847;SDS011;46681;47.696;9.140;2023-05-20T01:18:53;3.73;;;3.30;;
60847;SDS011;46681;47.696;9.140;2023-05-20T01:21:21;3.63;;;3.33;;
60847;SDS011;46681;47.696;9.140;2023-05-20T01:23:51;3.47;;;3.17;;
60847;SDS011;46681;47.696;9.140;2023-05-20T01:26:20;3.67;;;3.10;;
60847;SDS011;46681;47.696;9.140;2023-05-20T01:28:48;3.57;;;3.23;;
60847;SDS011;46681;47.696;9.140;2023-05-20T01:31:26;3.70;;;3.40;;
60847;SDS011;46681;47.696;9.140;2023-05-20T01:33:59;4.00;;;3.60;;
60847;SDS011;46681;47.696;9.140;2023-05-20T01:36:26;6.07;;;3.67;;
60847;SDS011;46681;47.696;9.140;2023-05-20T01:38:56;3.67;;;3.37;;
60847;SDS011;46681;47.696;9.140;2023-05-20T01:41:28;3.60;;;3.30;;
60847;SDS011;46681;47.696;9.140;2023-05-20T01:43:55;3.87;;;3.57;;
60847;SDS011;46681;47.696;9.140;2023-05-20T01:46:23;4.57;;;3.50;;
60847;SDS011;46681;47.696;9.140;2023-05-20T01:48:54;3.47;;;3.17;;
60847;SDS011;46681;47.696;9.140;2023-05-20T01:51:21;3.37;;;3.03;;
60847;SDS011;46681;47.696;9.140;2023-05-20T01:53:50;3.63;;;3.30;;
60847;SDS011;46681;47.696;9.140;2023-05-20T01:56:17;3.63;;;3.30;;
60847;SDS011;46681;47.696;9.140;2023-05-20T01:58:44;4.00;;;3.60;;
60847;SDS011;46681;47.696;9.140;2023-05-20T02:01:26;3.57;;;3.27;;
60847;SDS011;46681;47.696;9.140;2023-05-20T02:03:57;2.97;;;2.77;;
60847;SDS011;46681;47.696;9.140;2023-05-20T02:06:22;3.80;;;3.50;;
60847;SDS011;46681;47.696;9.140;2023-05-20T02:08:49;3.70;;;3.40;;
60847;SDS011;46681;47.696;9.140;2023-05-20T02:11:16;3.93;;;3.63;;
60847;SDS011;46681;47.696;9.140;2023-05-20T02:13:48;3.73;;;3.33;;
60847;SDS011;46681;47.696;9.140;2023-05-20T02:16:20;3.80;;;3.50;;
60847;SDS011;46681;47.696;9.140;2023-05-20T02:18:46;3.50;;;3.20;;
60847;SDS011;46681;47.696;9.140;2023-05-20T02:21:11;3.77;;;3.17;;
60847;SDS011;46681;47.696;9.140;2023-05-20T02:23:37;4.47;;;3.60;;
60847;SDS011;46681;47.696;9.140;2023-05-20T02:26:02;3.93;;;3.63;;
60847;SDS011;46681;47.696;9.140;2023-05-20T02:28:31;3.40;;;3.10;;
60847;SDS011;46681;47.696;9.140;2023-05-20T02:30:56;3.57;;;3.27;;
60847;SDS011;46681;47.696;9.140;2023-05-20T02:33:23;3.10;;;2.87;;
60847;SDS011;46681;47.696;9.140;2023-05-20T02:35:49;3.50;;;3.20;;
60847;SDS011;46681;47.696;9.140;2023-05-20T02:38:18;3.27;;;2.97;;
60847;SDS011;46681;47.696;9.140;2023-05-20T02:40:43;3.70;;;3.40;;
60847;SDS011;46681;47.696;9.140;2023-05-20T02:43:09;3.20;;;3.00;;
60847;SDS011;46681;47.696;9.140;2023-05-20T02:45:36;4.13;;;3.47;;
60847;SDS011;46681;47.696;9.140;2023-05-20T02:48:02;3.07;;;2.83;;
60847;SDS011;46681;47.696;9.140;2023-05-20T02:50:29;3.80;;;3.50;;
60847;SDS011;46681;47.696;9.140;2023-05-20T02:52:54;3.57;;;2.83;;
60847;SDS011;46681;47.696;9.140;2023-05-20T02:55:21;3.40;;;3.10;;
60847;SDS011;46681;47.696;9.140;2023-05-20T02:57:49;4.73;;;3.23;;
60847;SDS011;46681;47.696;9.140;2023-05-20T03:00:20;3.70;;;3.10;;
60847;SDS011;46681;47.696;9.140;2023-05-20T03:02:46;3.63;;;3.33;;
60847;SDS011;46681;47.696;9.140;2023-05-20T03:05:12;3.53;;;3.23;;
60847;SDS011;46681;47.696;9.140;2023-05-20T03:07:39;3.27;;;3.03;;
60847;SDS011;46681;47.696;9.140;2023-05-20T03:10:05;3.63;;;3.33;;
60847;SDS011;46681;47.696;9.140;2023-05-20T03:12:31;3.67;;;3.30;;
60847;SDS011;46681;47.696;9.140;2023-05-20T03:14:57;2.97;;;2.77;;
60847;SDS011;46681;47.696;9.140;2023-05-20T03:17:23;5.43;;;3.87;;
60847;SDS011;46681;47.696;9.140;2023-05-20T03:19:49;3.93;;;3.63;;
60847;SDS011;46681;47.696;9.140;2023-05-20T03:22:16;2.93;;;2.73;;
60847;SDS011;46681;47.696;9.140;2023-05-20T03:24:44;3.30;;;3.00;;
60847;SDS011;46681;47.696;9.140;2023-05-20T03:27:12;3.47;;;3.17;;
60847;SDS011;46681;47.696;9.140;2023-05-20T03:29:39;3.50;;;3.03;;
60847;SDS011;46681;47.696;9.140;2023-05-20T03:32:04;3.43;;;3.17;;
60847;SDS011;46681;47.696;9.140;2023-05-20T03:34:31;3.23;;;3.03;;
60847;SDS011;46681;47.696;9.140;2023-05-20T03:36:58;3.73;;;3.40;;
60847;SDS011;46681;47.696;9.140;2023-05-20T03:39:24;3.67;;;3.33;;
60847;SDS011;46681;47.696;9.140;2023-05-20T03:41:49;4.57;;;3.27;;
60847;SDS011;46681;47.696;9.140;2023-05-20T03:44:15;3.50;;;3.20;;
60847;SDS011;46681;47.696;9.140;2023-05-20T03:46:43;3.60;;;3.17;;
60847;SDS011;46681;47.696;9.140;2023-05-20T03:49:08;3.40;;;3.10;;
60847;SDS011;46681;47.696;9.140;2023-05-20T03:51:35;3.53;;;3.20;;
60847;SDS011;46681;47.696;9.140;2023-05-20T03:54:00;3.20;;;3.00;;
60847;SDS011;46681;47.696;9.140;2023-05-20T03:56:26;3.57;;;3.03;;
60847;SDS011;46681;47.696;9.140;2023-05-20T03:58:52;5.10;;;3.00;;
60847;SDS011;46681;47.696;9.140;2023-05-20T04:01:17;3.67;;;3.37;;
60847;SDS011;46681;47.696;9.140;2023-05-20T04:03:49;4.00;;;3.60;;
60847;SDS011;46681;47.696;9.140;2023-05-20T04:06:16;3.00;;;2.80;;
60847;SDS011;46681;47.696;9.140;2023-05-20T04:08:44;2.90;;;2.63;;
60847;SDS011;46681;47.696;9.140;2023-05-20T04:11:09;3.20;;;2.90;;
60847;SDS011;46681;47.696;9.140;2023-05-20T04:13:35;3.17;;;2.87;;
60847;SDS011;46681;47.696;9.140;2023-05-20T04:16:03;3.53;;;3.23;;
60847;SDS011;46681;47.696;9.140;2023-05-20T04:18:29;3.50;;;3.13;;
60847;SDS011;46681;47.696;9.140;2023-05-20T04:20:55;3.47;;;3.17;;
60847;SDS011;46681;47.696;9.140;2023-05-20T04:23:20;3.47;;;3.17;;
60847;SDS011;46681;47.696;9.140;2023-05-20T04:25:46;3.00;;;2.77;;
60847;SDS011;46681;47.696;9.140;2023-05-20T04:28:11;2.93;;;2.73;;
60847;SDS011;46681;47.696;9.140;2023-05-20T04:30:37;4.10;;;3.17;;
60847;SDS011;46681;47.696;9.140;2023-05-20T04:33:02;3.40;;;3.20;;
60847;SDS011;46681;47.696;9.140;2023-05-20T04:35:28;3.30;;;3.10;;
60847;SDS011;46681;47.696;9.140;2023-05-20T04:37:53;3.53;;;3.27;;
60847;SDS011;46681;47.696;9.140;2023-05-20T04:40:20;3.37;;;3.07;;
60847;SDS011;46681;47.696;9.140;2023-05-20T04:42:46;3.57;;;3.27;;
60847;SDS011;46681;47.696;9.140;2023-05-20T04:45:13;3.60;;;3.30;;
60847;SDS011;46681;47.696;9.140;2023-05-20T04:47:40;3.20;;;3.00;;
60847;SDS011;46681;47.696;9.140;2023-05-20T04:50:07;4.07;;;3.13;;
60847;SDS011;46681;47.696;9.140;2023-05-20T04:52:35;3.70;;;3.33;;
60847;SDS011;46681;47.696;9.140;2023-05-20T04:55:04;5.27;;;3.23;;
60847;SDS011;46681;47.696;9.140;2023-05-20T04:57:35;5.63;;;3.73;;
60847;SDS011;46681;47.696;9.140;2023-05-20T05:00:02;3.80;;;2.83;;
60847;SDS011;46681;47.696;9.140;2023-05-20T05:02:28;6.30;;;3.13;;
60847;SDS011;46681;47.696;9.140;2023-05-20T05:04:56;5.77;;;2.80;;
60847;SDS011;46681;47.696;9.140;2023-05-20T05:07:22;3.23;;;2.90;;
60847;SDS011;46681;47.696;9.140;2023-05-20T05:09:49;3.60;;;3.23;;
60847;SDS011;46681;47.696;9.140;2023-05-20T05:12:18;4.03;;;3.63;;
60847;SDS011;46681;47.696;9.140;2023-05-20T05:14:43;4.07;;;3.30;;
60847;SDS011;46681;47.696;9.140;2023-05-20T05:17:09;3.57;;;3.20;;
60847;SDS011;46681;47.696;9.140;2023-05-20T05:19:34;3.50;;;3.20;;
60847;SDS011;46681;47.696;9.140;2023-05-20T05:22:00;3.73;;;3.40;;
60847;SDS011;46681;47.696;9.140;2023-05-20T05:24:25;3.87;;;3.57;;
60847;SDS011;46681;47.696;9.140;2023-05-20T05:26:54;2.97;;;2.77;;
60847;SDS011;46681;47.696;9.140;2023-05-20T05:29:20;4.10;;;3.70;;
60847;SDS011;46681;47.696;9.140;2023-05-20T05:31:46;3.67;;;3.20;;
60847;SDS011;46681;47.696;9.140;2023-05-20T05:34:17;4.67;;;3.53;;
60847;SDS011;46681;47.696;9.140;2023-05-20T05:36:43;3.77;;;3.33;;
60847;SDS011;46681;47.696;9.140;2023-05-20T05:39:11;4.20;;;3.40;;
60847;SDS011;46681;47.696;9.140;2023-05-20T05:41:38;3.70;;;3.40;;
60847;SDS011;46681;47.696;9.140;2023-05-20T05:44:04;3.70;;;3.40;;
60847;SDS011;46681;47.696;9.140;2023-05-20T05:46:29;5.33;;;3.60;;
60847;SDS011;46681;47.696;9.140;2023-05-20T05:48:55;4.20;;;3.80;;
60847;SDS011;46681;47.696;9.140;2023-05-20T05:51:26;4.00;;;3.67;;
60847;SDS011;46681;47.696;9.140;2023-05-20T05:53:51;5.43;;;3.80;;
60847;SDS011;46681;47.696;9.140;2023-05-20T05:56:17;3.40;;;3.10;;
60847;SDS011;46681;47.696;9.140;2023-05-20T05:58:43;4.37;;;3.97;;
60847;SDS011;46681;47.696;9.140;2023-05-20T06:01:11;10.50;;;4.90;;
60847;SDS011;46681;47.696;9.140;2023-05-20T06:03:42;8.97;;;4.50;;
60847;SDS011;46681;47.696;9.140;2023-05-20T06:06:10;5.00;;;4.60;;
60847;SDS011;46681;47.696;9.140;2023-05-20T06:08:37;5.47;;;4.53;;
60847;SDS011;46681;47.696;9.140;2023-05-20T06:11:03;6.90;;;5.30;;
60847;SDS011;46681;47.696;9.140;2023-05-20T06:13:28;5.60;;;5.10;;
60847;SDS011;46681;47.696;9.140;2023-05-20T06:15:54;6.63;;;6.03;;
60847;SDS011;46681;47.696;9.140;2023-05-20T06:18:19;5.63;;;5.13;;
60847;SDS011;46681;47.696;9.140;2023-05-20T06:20:45;7.37;;;5.60;;
60847;SDS011;46681;47.696;9.140;2023-05-20T06:23:15;6.17;;;5.63;;
60847;SDS011;46681;47.696;9.140;2023-05-20T06:25:40;7.30;;;6.60;;
60847;SDS011;46681;47.696;9.140;2023-05-20T06:28:06;6.67;;;6.07;;
60847;SDS011;46681;47.696;9.140;2023-05-20T06:30:31;5.57;;;5.07;;
60847;SDS011;46681;47.696;9.140;2023-05-20T06:32:57;5.10;;;4.53;;
60847;SDS011;46681;47.696;9.140;2023-05-20T06:35:30;5.10;;;4.60;;
60847;SDS011;46681;47.696;9.140;2023-05-20T06:37:55;6.93;;;5.60;;
60847;SDS011;46681;47.696;9.140;2023-05-20T06:40:27;6.07;;;5.03;;
60847;SDS011;46681;47.696;9.140;2023-05-20T06:42:54;5.30;;;4.90;;
60847;SDS011;46681;47.696;9.140;2023-05-20T06:45:24;6.50;;;5.33;;
60847;SDS011;46681;47.696;9.140;2023-05-20T06:47:50;5.87;;;5.33;;
60847;SDS011;46681;47.696;9.140;2023-05-20T06:50:15;6.77;;;5.77;;
60847;SDS011;46681;47.696;9.140;2023-05-20T06:52:45;6.83;;;6.20;;
60847;SDS011;46681;47.696;9.140;2023-05-20T06:55:12;7.27;;;5.80;;
60847;SDS011;46681;47.696;9.140;2023-05-20T06:57:39;7.47;;;5.93;;
60847;SDS011;46681;47.696;9.140;2023-05-20T07:00:10;7.47;;;5.30;;
60847;SDS011;46681;47.696;9.140;2023-05-20T07:02:40;5.60;;;5.10;;
60847;SDS011;46681;47.696;9.140;2023-05-20T07:05:08;6.50;;;5.47;;
60847;SDS011;46681;47.696;9.140;2023-05-20T07:07:38;5.30;;;4.80;;
60847;SDS011;46681;47.696;9.140;2023-05-20T07:10:06;5.50;;;5.00;;
60847;SDS011;46681;47.696;9.140;2023-05-20T07:12:39;4.77;;;4.33;;
60847;SDS011;46681;47.696;9.140;2023-05-20T07:15:09;6.57;;;5.20;;
60847;SDS011;46681;47.696;9.140;2023-05-20T07:17:35;6.27;;;4.20;;
60847;SDS011;46681;47.696;9.140;2023-05-20T07:20:06;5.13;;;4.63;;
60847;SDS011;46681;47.696;9.140;2023-05-20T07:22:49;7.23;;;5.43;;
60847;SDS011;46681;47.696;9.140;2023-05-20T07:25:37;6.20;;;5.60;;
60847;SDS011;46681;47.696;9.140;2023-05-20T07:28:21;5.20;;;4.70;;
60847;SDS011;46681;47.696;9.140;2023-05-20T07:30:58;5.80;;;5.30;;
60847;SDS011;46681;47.696;9.140;2023-05-20T07:33:31;5.40;;;4.83;;
60847;SDS011;46681;47.696;9.140;2023-05-20T07:35:56;5.30;;;4.80;;
60847;SDS011;46681;47.696;9.140;2023-05-20T07:38:35;4.90;;;4.50;;
60847;SDS011;46681;47.696;9.140;2023-05-20T07:41:01;5.23;;;4.73;;
60847;SDS011;46681;47.696;9.140;2023-05-20T07:43:31;4.90;;;4.50;;
60847;SDS011;46681;47.696;9.140;2023-05-20T07:46:00;5.00;;;4.50;;
60847;SDS011;46681;47.696;9.140;2023-05-20T07:48:25;4.83;;;4.43;;
60847;SDS011;46681;47.696;9.140;2023-05-20T07:51:00;4.87;;;4.47;;
60847;SDS011;46681;47.696;9.140;2023-05-20T07:53:32;4.83;;;4.33;;
60847;SDS011;46681;47.696;9.140;2023-05-20T07:56:03;4.93;;;4.53;;
60847;SDS011;46681;47.696;9.140;2023-05-20T07:58:33;4.57;;;4.17;;
60847;SDS011;46681;47.696;9.140;2023-05-20T08:01:42;4.97;;;4.57;;
60847;SDS011;46681;47.696;9.140;2023-05-20T08:04:24;4.87;;;4.47;;
60847;SDS011;46681;47.696;9.140;2023-05-20T08:06:58;5.30;;;4.80;;
60847;SDS011;46681;47.696;9.140;2023-05-20T08:09:24;5.13;;;4.73;;
60847;SDS011;46681;47.696;9.140;2023-05-20T08:18:07;6.43;;;5.83;;
60847;SDS011;46681;47.696;9.140;2023-05-20T08:21:17;6.50;;;6.00;;
60847;SDS011;46681;47.696;9.140;2023-05-20T08:23:53;7.10;;;6.40;;
60847;SDS011;46681;47.696;9.140;2023-05-20T08:26:45;7.50;;;6.30;;
60847;SDS011;46681;47.696;9.140;2023-05-20T08:29:11;5.87;;;5.37;;
60847;SDS011;46681;47.696;9.140;2023-05-20T08:31:45;5.40;;;4.90;;
60847;SDS011;46681;47.696;9.140;2023-05-20T08:34:11;5.87;;;5.43;;
60847;SDS011;46681;47.696;9.140;2023-05-20T08:36:47;6.80;;;6.20;;
60847;SDS011;46681;47.696;9.140;2023-05-20T08:39:42;5.40;;;5.00;;
60847;SDS011;46681;47.696;9.140;2023-05-20T08:42:11;5.27;;;4.87;;
60847;SDS011;46681;47.696;9.140;2023-05-20T08:45:09;5.33;;;4.93;;
60847;SDS011;46681;47.696;9.140;2023-05-20T08:48:00;5.73;;;5.23;;
60847;SDS011;46681;47.696;9.140;2023-05-20T08:51:07;4.90;;;4.50;;
60847;SDS011;46681;47.696;9.140;2023-05-20T08:53:53;5.50;;;5.00;;
60847;SDS011;46681;47.696;9.140;2023-05-20T08:56:23;5.10;;;4.60;;
60847;SDS011;46681;47.696;9.140;2023-05-20T08:59:23;5.00;;;4.57;;
60847;SDS011;46681;47.696;9.140;2023-05-20T09:02:42;5.33;;;4.83;;
60847;SDS011;46681;47.696;9.140;2023-05-20T09:11:28;5.43;;;4.63;;
60847;SDS011;46681;47.696;9.140;2023-05-20T09:14:20;5.30;;;4.80;;
60847;SDS011;46681;47.696;9.140;2023-05-20T09:17:27;4.47;;;4.17;;
60847;SDS011;46681;47.696;9.140;2023-05-20T09:20:39;4.50;;;4.20;;
60847;SDS011;46681;47.696;9.140;2023-05-20T09:23:32;5.20;;;4.70;;
60847;SDS011;46681;47.696;9.140;2023-05-20T09:26:52;4.90;;;4.50;;
60847;SDS011;46681;47.696;9.140;2023-05-20T09:32:57;4.80;;;4.50;;
60847;SDS011;46681;47.696;9.140;2023-05-20T09:36:18;6.77;;;6.20;;
60847;SDS011;46681;47.696;9.140;2023-05-20T09:42:14;6.90;;;6.27;;
60847;SDS011;46681;47.696;9.140;2023-05-20T09:57:04;5.30;;;4.90;;
60847;SDS011;46681;47.696;9.140;2023-05-20T10:33:47;4.43;;;4.13;;
60847;SDS011;46681;47.696;9.140;2023-05-20T13:06:57;3.20;;;2.93;;
60847;SDS011;46681;47.696;9.140;2023-05-20T13:16:12;4.10;;;3.70;;
60847;SDS011;46681;47.696;9.140;2023-05-20T13:28:34;2.60;;;2.40;;
60847;SDS011;46681;47.696;9.140;2023-05-20T13:34:52;3.30;;;3.10;;
60847;SDS011;46681;47.696;9.140;2023-05-20T14:11:57;3.67;;;3.37;;
60847;SDS011;46681;47.696;9.140;2023-05-20T14:21:31;3.40;;;3.20;;
60847;SDS011;46681;47.696;9.140;2023-05-20T14:27:02;3.10;;;2.90;;
60847;SDS011;46681;47.696;9.140;2023-05-20T14:30:12;3.83;;;3.00;;
60847;SDS011;46681;47.696;9.140;2023-05-20T14:38:56;2.97;;;2.77;;
60847;SDS011;46681;47.696;9.140;2023-05-20T14:41:23;3.07;;;2.87;;
60847;SDS011;46681;47.696;9.140;2023-05-20T14:44:33;2.83;;;2.63;;
60847;SDS011;46681;47.696;9.140;2023-05-20T14:47:05;4.77;;;2.60;;
60847;SDS011;46681;47.696;9.140;2023-05-20T14:55:19;3.03;;;2.73;;
60847;SDS011;46681;47.696;9.140;2023-05-20T14:57:46;2.97;;;2.33;;
60847;SDS011;46681;47.696;9.140;2023-05-20T15:03:59;2.80;;;2.60;;
60847;SDS011;46681;47.696;9.140;2023-05-20T15:07:22;2.70;;;2.30;;
60847;SDS011;46681;47.696;9.140;2023-05-20T15:10:21;3.67;;;2.70;;
60847;SDS011;46681;47.696;9.140;2023-05-20T15:13:03;6.00;;;2.83;;
60847;SDS011;46681;47.696;9.140;2023-05-20T15:15:52;3.23;;;2.93;;
60847;SDS011;46681;47.696;9.140;2023-05-20T15:19:04;3.13;;;2.93;;
60847;SDS011;46681;47.696;9.140;2023-05-20T15:22:02;2.90;;;2.73;;
60847;SDS011;46681;47.696;9.140;2023-05-20T15:25:09;4.23;;;3.40;;
60847;SDS011;46681;47.696;9.140;2023-05-20T15:27:50;3.30;;;3.00;;
60847;SDS011;46681;47.696;9.140;2023-05-20T15:30:33;3.40;;;3.10;;
60847;SDS011;46681;47.696;9.140;2023-05-20T15:33:05;3.00;;;2.80;;
60847;SDS011;46681;47.696;9.140;2023-05-20T15:35:57;3.40;;;3.10;;
60847;SDS011;46681;47.696;9.140;2023-05-20T15:38:53;3.73;;;3.43;;
60847;SDS011;46681;47.696;9.140;2023-05-20T15:41:36;3.27;;;3.07;;
60847;SDS011;46681;47.696;9.140;2023-05-20T15:44:05;3.20;;;3.00;;
60847;SDS011;46681;47.696;9.140;2023-05-20T15:46:44;4.27;;;3.33;;
60847;SDS011;46681;47.696;9.140;2023-05-20T15:52:26;3.20;;;3.00;;
60847;SDS011;46681;47.696;9.140;2023-05-20T15:55:28;3.20;;;3.00;;
60847;SDS011;46681;47.696;9.140;2023-05-20T15:58:01;4.80;;;4.40;;
60847;SDS011;46681;47.696;9.140;2023-05-20T16:00:31;5.17;;;4.00;;
60847;SDS011;46681;47.696;9.140;2023-05-20T16:06:12;3.83;;;3.53;;
60847;SDS011;46681;47.696;9.140;2023-05-20T16:08:41;3.80;;;3.50;;
60847;SDS011;46681;47.696;9.140;2023-05-20T16:11:47;4.50;;;3.80;;
60847;SDS011;46681;47.696;9.140;2023-05-20T16:14:39;4.07;;;3.70;;
60847;SDS011;46681;47.696;9.140;2023-05-20T16:17:05;3.60;;;3.30;;
60847;SDS011;46681;47.696;9.140;2023-05-20T16:19:48;3.93;;;3.63;;
60847;SDS011;46681;47.696;9.140;2023-05-20T16:25:32;3.97;;;3.67;;
60847;SDS011;46681;47.696;9.140;2023-05-20T16:27:59;3.57;;;3.37;;
60847;SDS011;46681;47.696;9.140;2023-05-20T16:30:30;4.80;;;3.70;;
60847;SDS011;46681;47.696;9.140;2023-05-20T16:33:01;3.93;;;3.63;;
60847;SDS011;46681;47.696;9.140;2023-05-20T16:35:43;3.93;;;3.63;;
60847;SDS011;46681;47.696;9.140;2023-05-20T16:38:32;4.20;;;3.90;;
60847;SDS011;46681;47.696;9.140;2023-05-20T16:41:32;4.53;;;3.73;;
60847;SDS011;46681;47.696;9.140;2023-05-20T16:44:09;4.33;;;3.97;;
60847;SDS011;46681;47.696;9.140;2023-05-20T16:47:01;5.27;;;3.30;;
60847;SDS011;46681;47.696;9.140;2023-05-20T16:52:49;4.00;;;3.60;;
60847;SDS011;46681;47.696;9.140;2023-05-20T16:55:53;4.40;;;4.00;;
60847;SDS011;46681;47.696;9.140;2023-05-20T16:58:38;4.77;;;3.70;;
60847;SDS011;46681;47.696;9.140;2023-05-20T17:01:40;4.17;;;3.80;;
60847;SDS011;46681;47.696;9.140;2023-05-20T17:04:19;5.10;;;4.70;;
60847;SDS011;46681;47.696;9.140;2023-05-20T17:07:02;5.50;;;5.00;;
60847;SDS011;46681;47.696;9.140;2023-05-20T17:09:50;5.13;;;4.63;;
60847;SDS011;46681;47.696;9.140;2023-05-20T17:12:31;4.53;;;4.23;;
60847;SDS011;46681;47.696;9.140;2023-05-20T17:15:10;6.27;;;4.50;;
60847;SDS011;46681;47.696;9.140;2023-05-20T17:17:40;4.83;;;4.43;;
60847;SDS011;46681;47.696;9.140;2023-05-20T17:20:26;4.53;;;4.23;;
60847;SDS011;46681;47.696;9.140;2023-05-20T17:23:01;4.73;;;4.20;;
60847;SDS011;46681;47.696;9.140;2023-05-20T17:25:30;4.53;;;4.13;;
60847;SDS011;46681;47.696;9.140;2023-05-20T17:28:20;4.60;;;4.30;;
60847;SDS011;46681;47.696;9.140;2023-05-20T17:30:54;5.80;;;4.33;;
60847;SDS011;46681;47.696;9.140;2023-05-20T17:33:22;4.40;;;4.00;;
60847;SDS011;46681;47.696;9.140;2023-05-20T17:35:58;4.47;;;4.17;;
60847;SDS011;46681;47.696;9.140;2023-05-20T17:38:26;4.80;;;4.40;;
60847;SDS011;46681;47.696;9.140;2023-05-20T17:41:22;4.63;;;4.33;;
60847;SDS011;46681;47.696;9.140;2023-05-20T17:44:02;5.30;;;4.77;;
60847;SDS011;46681;47.696;9.140;2023-05-20T17:46:39;4.60;;;4.20;;
60847;SDS011;46681;47.696;9.140;2023-05-20T17:49:06;4.80;;;4.50;;
60847;SDS011;46681;47.696;9.140;2023-05-20T17:51:35;4.60;;;4.17;;
60847;SDS011;46681;47.696;9.140;2023-05-20T17:54:02;4.63;;;4.33;;
60847;SDS011;46681;47.696;9.140;2023-05-20T17:59:32;4.20;;;3.90;;
60847;SDS011;46681;47.696;9.140;2023-05-20T18:02:08;4.80;;;4.40;;
60847;SDS011;46681;47.696;9.140;2023-05-20T18:04:38;4.20;;;3.90;;
60847;SDS011;46681;47.696;9.140;2023-05-20T18:07:34;4.13;;;3.67;;
60847;SDS011;46681;47.696;9.140;2023-05-20T18:10:03;5.37;;;3.60;;
60847;SDS011;46681;47.696;9.140;2023-05-20T18:12:35;4.80;;;4.50;;
60847;SDS011;46681;47.696;9.140;2023-05-20T18:15:05;4.57;;;4.17;;
60847;SDS011;46681;47.696;9.140;2023-05-20T18:17:45;4.53;;;4.23;;
60847;SDS011;46681;47.696;9.140;2023-05-20T18:20:12;4.50;;;4.17;;
60847;SDS011;46681;47.696;9.140;2023-05-20T18:22:44;4.23;;;3.93;;
60847;SDS011;46681;47.696;9.140;2023-05-20T18:25:27;4.47;;;4.17;;
60847;SDS011;46681;47.696;9.140;2023-05-20T18:27:58;4.70;;;4.30;;
60847;SDS011;46681;47.696;9.140;2023-05-20T18:30:29;4.90;;;4.50;;
60847;SDS011;46681;47.696;9.140;2023-05-20T18:32:58;4.53;;;4.20;;
60847;SDS011;46681;47.696;9.140;2023-05-20T18:38:33;5.00;;;4.60;;
60847;SDS011;46681;47.696;9.140;2023-05-20T18:41:00;4.90;;;4.47;;
60847;SDS011;46681;47.696;9.140;2023-05-20T18:43:50;4.50;;;4.20;;
60847;SDS011;46681;47.696;9.140;2023-05-20T18:46:23;4.00;;;3.70;;
60847;SDS011;46681;47.696;9.140;2023-05-20T18:48:49;3.90;;;3.60;;
60847;SDS011;46681;47.696;9.140;2023-05-20T18:51:15;4.03;;;3.73;;
60847;SDS011;46681;47.696;9.140;2023-05-20T18:53:42;4.07;;;3.77;;
60847;SDS011;46681;47.696;9.140;2023-05-20T18:56:10;4.00;;;3.70;;
60847;SDS011;46681;47.696;9.140;2023-05-20T18:58:41;4.23;;;3.93;;
60847;SDS011;46681;47.696;9.140;2023-05-20T19:01:10;4.20;;;3.80;;
60847;SDS011;46681;47.696;9.140;2023-05-20T19:03:44;4.20;;;3.90;;
60847;SDS011;46681;47.696;9.140;2023-05-20T19:06:12;3.93;;;3.63;;
60847;SDS011;46681;47.696;9.140;2023-05-20T19:08:40;4.30;;;4.00;;
60847;SDS011;46681;47.696;9.140;2023-05-20T19:11:11;4.73;;;3.90;;
60847;SDS011;46681;47.696;9.140;2023-05-20T19:13:42;4.10;;;3.80;;
60847;SDS011;46681;47.696;9.140;2023-05-20T19:16:08;3.90;;;3.60;;
60847;SDS011;46681;47.696;9.140;2023-05-20T19:18:37;4.13;;;3.83;;
60847;SDS011;46681;47.696;9.140;2023-05-20T19:21:05;3.77;;;3.57;;
60847;SDS011;46681;47.696;9.140;2023-05-20T19:23:39;4.57;;;4.03;;
60847;SDS011;46681;47.696;9.140;2023-05-20T19:26:06;4.23;;;3.93;;
60847;SDS011;46681;47.696;9.140;2023-05-20T19:28:37;5.20;;;4.03;;
60847;SDS011;46681;47.696;9.140;2023-05-20T19:31:06;4.37;;;3.93;;
60847;SDS011;46681;47.696;9.140;2023-05-20T19:33:34;4.87;;;4.37;;
60847;SDS011;46681;47.696;9.140;2023-05-20T19:36:01;4.70;;;4.40;;
60847;SDS011;46681;47.696;9.140;2023-05-20T19:38:33;4.07;;;3.77;;
60847;SDS011;46681;47.696;9.140;2023-05-20T19:41:02;4.90;;;4.50;;
60847;SDS011;46681;47.696;9.140;2023-05-20T19:43:30;5.17;;;4.77;;
60847;SDS011;46681;47.696;9.140;2023-05-20T19:45:57;4.37;;;4.07;;
60847;SDS011;46681;47.696;9.140;2023-05-20T19:48:23;5.00;;;4.60;;
60847;SDS011;46681;47.696;9.140;2023-05-20T19:50:49;4.53;;;4.13;;
60847;SDS011;46681;47.696;9.140;2023-05-20T19:53:17;4.73;;;4.37;;
60847;SDS011;46681;47.696;9.140;2023-05-20T19:55:48;5.10;;;4.70;;
60847;SDS011;46681;47.696;9.140;2023-05-20T19:58:21;4.70;;;4.40;;
60847;SDS011;46681;47.696;9.140;2023-05-20T20:00:47;4.43;;;4.13;;
60847;SDS011;46681;47.696;9.140;2023-05-20T20:03:13;4.97;;;4.57;;
60847;SDS011;46681;47.696;9.140;2023-05-20T20:05:39;4.83;;;4.43;;
60847;SDS011;46681;47.696;9.140;2023-05-20T20:08:05;5.27;;;4.87;;
60847;SDS011;46681;47.696;9.140;2023-05-20T20:10:42;5.37;;;4.87;;
60847;SDS011;46681;47.696;9.140;2023-05-20T20:13:08;4.93;;;4.63;;
60847;SDS011;46681;47.696;9.140;2023-05-20T20:15:37;5.63;;;5.13;;
60847;SDS011;46681;47.696;9.140;2023-05-20T20:18:03;5.60;;;5.10;;
60847;SDS011;46681;47.696;9.140;2023-05-20T20:20:29;5.17;;;4.77;;
60847;SDS011;46681;47.696;9.140;2023-05-20T20:22:55;5.40;;;4.90;;
60847;SDS011;46681;47.696;9.140;2023-05-20T20:25:23;5.37;;;4.90;;
60847;SDS011;46681;47.696;9.140;2023-05-20T20:27:51;4.77;;;4.47;;
60847;SDS011;46681;47.696;9.140;2023-05-20T20:30:17;5.33;;;4.93;;
60847;SDS011;46681;47.696;9.140;2023-05-20T20:32:43;5.57;;;5.17;;
60847;SDS011;46681;47.696;9.140;2023-05-20T20:35:14;5.67;;;5.17;;
60847;SDS011;46681;47.696;9.140;2023-05-20T20:37:41;5.37;;;5.00;;
60847;SDS011;46681;47.696;9.140;2023-05-20T20:40:07;5.37;;;4.97;;
60847;SDS011;46681;47.696;9.140;2023-05-20T20:42:38;5.73;;;5.13;;